Time;durP1;ratioP1;P1;durP2;ratioP2;P2;SDS_P1;SDS_P2;PMS_P1;PMS_P2;Temp;Humidity;BMP_temperature;BMP_pressure;BME280_temperature;BME280_humidity;BME280_pressure;Samples;Min_cycle;Max_cycle;Signal;HPM_P1;HPM_P2
2021/05/05 00:02:07;;;;;;;3.72;0.80;;;9.70;89.40;;;;;;6132126;23;20419;-95
2021/05/05 00:04:33;;;;;;;0.88;0.50;;;9.70;89.40;;;;;;6132059;23;20343;-94
2021/05/05 00:07:07;;;;;;;1.35;0.57;;;9.70;89.40;;;;;;6131931;23;20002;-95
2021/05/05 00:09:33;;;;;;;1.20;0.65;;;9.70;89.20;;;;;;6131580;23;20072;-93
2021/05/05 00:11:58;;;;;;;3.70;1.10;;;9.70;90.10;;;;;;6131776;23;20002;-95
2021/05/05 00:14:24;;;;;;;3.15;0.85;;;9.70;89.90;;;;;;6132421;23;20285;-94
2021/05/05 00:16:49;;;;;;;3.88;1.00;;;9.70;90.10;;;;;;6132279;23;20040;-94
2021/05/05 00:19:15;;;;;;;4.00;0.82;;;9.70;89.40;;;;;;6132022;23;20021;-94
2021/05/05 00:21:41;;;;;;;4.20;0.98;;;9.70;90.00;;;;;;6131831;23;20010;-94
2021/05/05 00:24:08;;;;;;;2.08;0.95;;;9.70;90.00;;;;;;6131757;23;20006;-94
2021/05/05 00:26:34;;;;;;;1.40;0.70;;;9.60;89.90;;;;;;6132113;23;20006;-94
2021/05/05 00:28:59;;;;;;;2.33;0.80;;;9.60;90.00;;;;;;6132040;23;20064;-95
2021/05/05 00:31:26;;;;;;;1.10;0.88;;;9.60;89.80;;;;;;6131796;23;19997;-93
2021/05/05 00:33:51;;;;;;;1.73;1.38;;;9.70;90.10;;;;;;6132199;23;20002;-95
2021/05/05 00:36:17;;;;;;;2.15;0.85;;;9.60;90.00;;;;;;6131719;23;20358;-93
2021/05/05 00:38:44;;;;;;;2.15;0.70;;;9.60;90.10;;;;;;6131546;23;20006;-94
2021/05/05 00:41:11;;;;;;;2.80;0.70;;;9.60;90.00;;;;;;6132104;23;20007;-95
2021/05/05 00:43:38;;;;;;;3.13;1.50;;;9.60;90.10;;;;;;6131660;23;20006;-94
2021/05/05 00:46:04;;;;;;;4.72;0.73;;;9.60;89.60;;;;;;6131704;23;20362;-94
2021/05/05 00:48:30;;;;;;;1.30;0.55;;;9.60;89.90;;;;;;6131537;23;20016;-94
2021/05/05 00:50:57;;;;;;;5.60;1.15;;;9.60;89.90;;;;;;6132097;23;20052;-94
2021/05/05 00:53:23;;;;;;;8.13;1.10;;;9.60;89.80;;;;;;6131870;23;20006;-96
2021/05/05 00:55:49;;;;;;;4.70;1.48;;;9.70;89.60;;;;;;6131522;23;20244;-95
2021/05/05 00:58:19;;;;;;;1.75;1.13;;;9.70;89.80;;;;;;6132076;23;20505;-94
2021/05/05 01:00:52;;;;;;;1.42;0.68;;;9.60;89.70;;;;;;6130739;23;20009;-95
2021/05/05 01:03:19;;;;;;;1.45;0.73;;;9.60;89.90;;;;;;6132002;23;20010;-94
2021/05/05 01:05:45;;;;;;;3.60;0.80;;;9.50;89.60;;;;;;6131434;23;20085;-95
2021/05/05 01:08:14;;;;;;;1.60;0.70;;;9.50;89.70;;;;;;6131562;23;20006;-96
2021/05/05 01:10:40;;;;;;;0.65;0.60;;;9.50;89.80;;;;;;6132114;23;20006;-95
2021/05/05 01:13:05;;;;;;;2.50;0.70;;;9.50;89.30;;;;;;6133416;23;20385;-95
2021/05/05 01:15:31;;;;;;;0.80;0.50;;;9.50;89.40;;;;;;6140125;23;20336;-95
2021/05/05 01:17:57;;;;;;;2.55;1.10;;;9.50;89.60;;;;;;6131581;23;20089;-94
2021/05/05 01:20:27;;;;;;;5.47;0.80;;;9.50;89.30;;;;;;6107290;23;20327;-94
2021/05/05 01:22:53;;;;;;;4.95;0.90;;;9.50;89.20;;;;;;6131716;23;20420;-93
2021/05/05 01:25:19;;;;;;;2.25;0.77;;;9.40;89.00;;;;;;6131629;23;20042;-93
2021/05/05 01:27:44;;;;;;;1.90;1.13;;;9.40;88.60;;;;;;6131215;23;20006;-94
2021/05/05 01:30:13;;;;;;;1.30;0.70;;;9.40;88.40;;;;;;6131991;23;20029;-95
2021/05/05 01:32:39;;;;;;;6.72;1.27;;;9.40;88.30;;;;;;6131518;23;20281;-94
2021/05/05 01:35:07;;;;;;;3.45;0.80;;;9.40;88.00;;;;;;6131469;23;20133;-95
2021/05/05 01:37:33;;;;;;;3.78;0.90;;;9.40;87.70;;;;;;6131409;23;20006;-94
2021/05/05 01:40:00;;;;;;;1.23;0.50;;;9.40;87.80;;;;;;6131797;23;20009;-95
2021/05/05 01:42:25;;;;;;;1.95;0.77;;;9.40;87.70;;;;;;6131553;23;20327;-95
2021/05/05 01:44:51;;;;;;;1.27;0.50;;;9.30;87.40;;;;;;6131358;23;20006;-95
2021/05/05 01:47:17;;;;;;;2.35;0.93;;;9.30;87.60;;;;;;6131752;23;20006;-95
2021/05/05 01:49:45;;;;;;;1.80;0.70;;;9.30;87.40;;;;;;6131633;23;20014;-95
2021/05/05 01:52:13;;;;;;;2.33;1.00;;;9.30;87.20;;;;;;6132835;23;20002;-94
2021/05/05 01:54:39;;;;;;;3.08;1.17;;;9.30;86.90;;;;;;6132883;23;20078;-95
2021/05/05 01:57:31;;;;;;;2.50;1.05;;;9.30;86.60;;;;;;6133044;23;20082;-94
2021/05/05 02:00:00;;;;;;;1.70;1.10;;;9.30;86.60;;;;;;6133194;23;20006;-94
2021/05/05 02:02:30;;;;;;;5.95;1.30;;;9.30;86.80;;;;;;6132950;23;20044;-94
2021/05/05 02:04:56;;;;;;;3.83;1.20;;;9.30;87.00;;;;;;6133204;23;20010;-94
2021/05/05 02:07:22;;;;;;;2.00;0.77;;;9.20;86.80;;;;;;6132763;23;20006;-94
2021/05/05 02:09:48;;;;;;;3.10;1.00;;;9.30;86.90;;;;;;6133235;23;20006;-94
2021/05/05 02:12:15;;;;;;;2.45;0.75;;;9.20;86.90;;;;;;6133264;23;20094;-95
2021/05/05 02:14:42;;;;;;;2.28;1.60;;;9.20;86.80;;;;;;6133112;23;20002;-93
2021/05/05 02:17:39;;;;;;;3.03;0.73;;;9.10;86.90;;;;;;6133352;23;20005;-95
2021/05/05 02:20:10;;;;;;;3.90;1.15;;;9.10;87.20;;;;;;6133139;23;20060;-94
2021/05/05 02:22:36;;;;;;;3.22;1.30;;;9.00;87.60;;;;;;6132984;23;20009;-94
2021/05/05 02:25:03;;;;;;;4.88;0.90;;;9.00;87.60;;;;;;6132440;23;20041;-94
2021/05/05 02:27:28;;;;;;;1.80;0.90;;;9.00;87.90;;;;;;6132978;23;20002;-95
2021/05/05 02:29:54;;;;;;;2.70;0.80;;;8.90;87.90;;;;;;6132974;23;20006;-94
2021/05/05 02:32:23;;;;;;;1.52;0.80;;;8.90;88.70;;;;;;6132739;23;20095;-94
2021/05/05 02:34:49;;;;;;;1.02;0.90;;;8.90;89.10;;;;;;6132907;23;20085;-95
2021/05/05 02:37:15;;;;;;;2.65;1.00;;;8.90;88.90;;;;;;6132683;23;20064;-95
2021/05/05 02:39:44;;;;;;;1.77;0.75;;;8.90;89.00;;;;;;6133021;23;20014;-94
2021/05/05 02:42:14;;;;;;;4.43;0.73;;;8.80;89.00;;;;;;6132926;23;20010;-94
2021/05/05 02:44:41;;;;;;;1.90;1.48;;;8.90;88.90;;;;;;6132678;23;20069;-93
2021/05/05 02:47:07;;;;;;;1.10;0.70;;;8.80;89.00;;;;;;6132918;23;20006;-95
2021/05/05 02:49:34;;;;;;;2.13;1.30;;;8.80;89.40;;;;;;6132279;23;20009;-94
2021/05/05 02:52:00;;;;;;;1.42;0.80;;;8.80;89.90;;;;;;6132675;23;20006;-95
2021/05/05 02:54:26;;;;;;;1.77;0.80;;;8.80;90.00;;;;;;6107930;23;20242;-94
2021/05/05 02:56:54;;;;;;;4.55;1.00;;;8.80;90.00;;;;;;6132576;23;20006;-95
2021/05/05 02:59:26;;;;;;;1.98;0.88;;;8.80;90.20;;;;;;6132697;23;20084;-95
2021/05/05 03:01:53;;;;;;;1.52;1.10;;;8.70;90.40;;;;;;6132361;23;20361;-94
2021/05/05 03:04:19;;;;;;;3.40;0.90;;;8.70;90.60;;;;;;6132232;23;20016;-94
2021/05/05 03:06:44;;;;;;;1.60;0.90;;;8.60;90.60;;;;;;6132365;23;20010;-94
2021/05/05 03:09:12;;;;;;;1.10;0.80;;;8.60;90.80;;;;;;6132473;23;20010;-92
2021/05/05 03:11:37;;;;;;;7.55;1.08;;;8.60;90.90;;;;;;6132662;23;20089;-91
2021/05/05 03:14:03;;;;;;;2.38;1.17;;;8.50;91.10;;;;;;6132785;23;20006;-92
2021/05/05 03:16:29;;;;;;;3.22;0.93;;;8.50;91.20;;;;;;6139931;23;19998;-91
2021/05/05 03:18:55;;;;;;;1.15;0.90;;;8.40;91.30;;;;;;6134322;23;20072;-93
2021/05/05 03:21:21;;;;;;;2.35;1.20;;;8.40;91.40;;;;;;6132292;23;20010;-94
2021/05/05 03:23:47;;;;;;;2.33;0.80;;;8.40;91.40;;;;;;6132356;23;20010;-94
2021/05/05 03:26:12;;;;;;;2.25;0.98;;;8.40;91.40;;;;;;6131725;23;20064;-93
2021/05/05 03:28:38;;;;;;;3.42;1.17;;;8.40;91.30;;;;;;6132470;23;20014;-93
2021/05/05 03:31:09;;;;;;;4.30;1.92;;;8.30;91.30;;;;;;6131924;23;20230;-94
2021/05/05 03:33:35;;;;;;;3.25;1.10;;;8.30;91.60;;;;;;6132451;23;20002;-94
2021/05/05 03:36:01;;;;;;;1.75;0.93;;;8.30;91.40;;;;;;6132297;23;20002;-93
2021/05/05 03:38:27;;;;;;;1.77;1.25;;;8.30;91.30;;;;;;6132330;23;20006;-94
2021/05/05 03:40:53;;;;;;;2.05;0.80;;;8.30;91.30;;;;;;6132541;23;20014;-93
2021/05/05 03:43:19;;;;;;;4.72;1.30;;;8.30;91.40;;;;;;6131945;23;20006;-94
2021/05/05 03:45:47;;;;;;;8.02;2.15;;;8.30;91.20;;;;;;6132106;23;20009;-94
2021/05/05 03:48:13;;;;;;;7.07;1.75;;;8.30;91.20;;;;;;6131995;23;20012;-95
2021/05/05 03:50:39;;;;;;;1.83;0.90;;;8.30;91.10;;;;;;6132489;23;20006;-95
2021/05/05 03:53:05;;;;;;;3.75;1.00;;;8.40;91.00;;;;;;6132010;23;20322;-93
2021/05/05 03:55:31;;;;;;;5.13;1.05;;;8.50;90.90;;;;;;6132256;23;20002;-92
2021/05/05 03:57:57;;;;;;;4.03;1.27;;;8.40;90.80;;;;;;6131983;23;20014;-93
2021/05/05 04:00:22;;;;;;;1.30;0.88;;;8.50;90.80;;;;;;6132487;23;20033;-93
2021/05/05 04:02:48;;;;;;;2.88;0.90;;;8.50;90.80;;;;;;6131959;23;20016;-94
2021/05/05 04:05:17;;;;;;;1.50;0.68;;;8.60;90.80;;;;;;6132258;23;20013;-93
2021/05/05 04:07:42;;;;;;;3.90;0.93;;;8.60;90.90;;;;;;6132146;23;20010;-93
2021/05/05 04:10:09;;;;;;;3.15;1.52;;;8.70;90.70;;;;;;6131722;23;20020;-94
2021/05/05 04:12:36;;;;;;;2.53;1.33;;;8.70;90.90;;;;;;6131508;23;20017;-93
2021/05/05 04:15:03;;;;;;;1.65;0.80;;;8.70;90.70;;;;;;6131795;23;20017;-94
2021/05/05 04:17:37;;;;;;;2.42;1.13;;;8.70;90.70;;;;;;6131854;23;20084;-94
2021/05/05 04:20:10;;;;;;;1.70;1.05;;;8.80;90.60;;;;;;6131881;23;20005;-95
2021/05/05 04:22:39;;;;;;;4.97;1.30;;;8.90;90.50;;;;;;6132163;23;20164;-94
2021/05/05 04:25:05;;;;;;;6.15;1.38;;;8.90;90.40;;;;;;6131281;23;20061;-94
2021/05/05 04:27:31;;;;;;;3.47;1.35;;;8.90;90.30;;;;;;6131809;23;20002;-94
2021/05/05 04:30:07;;;;;;;;;;;;;;;;;;;;;
2021/05/05 04:33:11;;;;;;;1.60;0.85;;;8.90;90.30;;;;;;6132196;23;20029;-94
2021/05/05 04:35:37;;;;;;;1.52;0.80;;;9.00;90.20;;;;;;6131820;23;20002;-95
2021/05/05 04:38:03;;;;;;;3.13;1.15;;;8.90;90.10;;;;;;6131722;23;20020;-95
2021/05/05 04:40:52;;;;;;;2.72;1.38;;;8.90;90.20;;;;;;6131673;23;20033;-96
2021/05/05 04:43:18;;;;;;;4.70;1.50;;;8.90;90.30;;;;;;6132064;23;20009;-95
2021/05/05 04:46:14;;;;;;;4.25;1.00;;;8.90;90.20;;;;;;6132064;23;20040;-96
2021/05/05 04:49:00;;;;;;;;;;;;;;;;;;;;;
2021/05/05 04:54:44;;;;;;;1.48;1.10;;;9.00;89.40;;;;;;6132942;23;20048;-95
2021/05/05 04:57:15;;;;;;;2.45;1.10;;;9.10;89.40;;;;;;6131543;23;20041;-94
2021/05/05 04:59:57;;;;;;;1.77;1.02;;;9.20;88.60;;;;;;6133027;23;20024;-94
2021/05/05 05:03:11;;;;;;;1.60;1.50;;;9.20;88.10;;;;;;6128633;23;20018;-94
2021/05/05 05:06:20;;;;;;;6.40;1.38;;;9.20;87.60;;;;;;6130254;23;20010;-95
2021/05/05 05:09:27;;;;;;;1.80;0.93;;;9.20;87.50;;;;;;6155886;23;20006;-94
2021/05/05 05:12:33;;;;;;;2.63;1.25;;;9.20;87.20;;;;;;6121106;23;20097;-95
2021/05/05 05:18:51;;;;;;;2.10;1.10;;;9.40;88.00;;;;;;6116418;23;20074;-93
2021/05/05 05:21:36;;;;;;;5.05;1.80;;;9.50;87.10;;;;;;6135064;23;20203;-95
2021/05/05 05:24:36;;;;;;;3.00;1.52;;;9.70;86.40;;;;;;6130709;23;20006;-95
2021/05/05 05:27:53;;;;;;;4.43;1.10;;;9.80;86.30;;;;;;6131931;23;20017;-93
2021/05/05 05:33:48;;;;;;;5.10;1.00;;;10.20;85.30;;;;;;6133767;23;20089;-96
2021/05/05 05:36:55;;;;;;;5.78;0.88;;;10.30;84.70;;;;;;6132378;23;20009;-95
2021/05/05 05:40:05;;;;;;;3.03;1.10;;;10.40;84.60;;;;;;6132051;23;20010;-95
2021/05/05 05:53:57;;;;;;;5.13;1.48;;;10.80;83.00;;;;;;6015060;23;20008;-96
2021/05/05 05:56:44;;;;;;;1.08;0.68;;;10.90;82.00;;;;;;6015852;23;20007;-95
2021/05/05 06:07:08;;;;;;;4.63;1.10;;;11.10;80.70;;;;;;5932382;24;20092;-95
2021/05/05 06:20:09;;;;;;;4.13;1.00;;;10.90;78.70;;;;;;6133001;23;20029;-96
2021/05/05 06:26:04;;;;;;;2.25;1.05;;;10.80;78.10;;;;;;6132774;23;20008;-95
2021/05/05 06:29:05;;;;;;;5.63;1.15;;;10.80;76.50;;;;;;6131442;23;20016;-96
2021/05/05 06:39:40;;;;;;;3.75;1.17;;;11.00;75.90;;;;;;6015767;23;20143;-96
2021/05/05 06:43:04;;;;;;;2.97;1.17;;;10.90;76.20;;;;;;5931250;24;20013;-96
2021/05/05 06:46:00;;;;;;;;;;;;;;;;;;;;;
2021/05/05 06:48:54;;;;;;;2.28;1.05;;;10.70;75.90;;;;;;6132328;23;20026;-96
2021/05/05 06:52:21;;;;;;;;;;;;;;;;;;;;;
2021/05/05 07:39:49;;;;;;;2.58;1.10;;;11.40;67.50;;;;;;5931952;24;20016;-96
2021/05/05 07:53:01;;;;;;;3.10;0.98;;;12.00;65.90;;;;;;6132467;23;20076;-96
2021/05/05 08:06:23;;;;;;;4.03;1.20;;;12.10;63.00;;;;;;6071890;23;20236;-94
2021/05/05 08:39:57;;;;;;;3.55;0.70;;;12.70;60.50;;;;;;6014687;23;20062;-95
2021/05/05 09:00:02;;;;;;;3.85;0.70;;;12.20;59.10;;;;;;5930231;24;20250;-94
2021/05/05 10:31:58;;;;;;;1.23;0.50;;;13.40;53.70;;;;;;6015814;23;20023;-92
2021/05/05 10:34:26;;;;;;;1.88;0.50;;;13.40;51.90;;;;;;5994189;23;20012;-93
2021/05/05 11:00:00;;;;;;;0.90;0.70;;;15.00;49.40;;;;;;6015781;23;20114;-95
2021/05/05 11:02:51;;;;;;;1.83;0.60;;;14.90;49.20;;;;;;6132250;23;20002;-95
2021/05/05 11:05:37;;;;;;;2.88;1.08;;;14.80;48.40;;;;;;6131700;23;20287;-94
2021/05/05 11:08:25;;;;;;;2.30;0.63;;;14.80;51.20;;;;;;6131165;23;20013;-93
2021/05/05 11:10:53;;;;;;;4.63;0.60;;;14.80;53.10;;;;;;6131929;23;20016;-95
2021/05/05 11:13:19;;;;;;;1.38;0.57;;;15.00;48.30;;;;;;6131882;23;19998;-95
2021/05/05 11:15:45;;;;;;;0.90;0.40;;;15.00;47.10;;;;;;6136116;23;20021;-94
2021/05/05 11:18:43;;;;;;;1.42;0.50;;;15.00;47.70;;;;;;6134534;23;20001;-94
2021/05/05 11:21:58;;;;;;;3.70;0.70;;;15.20;47.50;;;;;;6132077;23;20040;-95
2021/05/05 11:38:33;;;;;;;3.20;1.10;;;12.90;64.40;;;;;;6132653;23;20009;-95
2021/05/05 11:41:10;;;;;;;4.15;1.17;;;12.50;68.30;;;;;;6131723;23;20437;-93
2021/05/05 11:43:43;;;;;;;2.42;1.58;;;12.20;69.20;;;;;;6132022;23;20005;-92
2021/05/05 11:46:11;;;;;;;3.92;1.30;;;12.10;70.50;;;;;;6132664;23;20002;-94
2021/05/05 11:49:21;;;;;;;2.20;1.00;;;12.20;70.00;;;;;;6131917;23;20006;-95
2021/05/05 11:59:26;;;;;;;2.92;0.70;;;12.40;66.30;;;;;;6132138;23;20246;-93
2021/05/05 12:02:31;;;;;;;1.10;0.52;;;12.50;64.30;;;;;;6033868;23;20120;-95
2021/05/05 12:08:24;;;;;;;1.27;0.50;;;12.60;61.90;;;;;;6132046;23;20068;-95
2021/05/05 12:18:02;;;;;;;1.65;0.70;;;12.70;60.80;;;;;;6072850;23;20018;-93
2021/05/05 12:20:31;;;;;;;3.47;0.50;;;12.70;59.00;;;;;;6048077;23;20089;-95
2021/05/05 12:23:26;;;;;;;3.85;0.45;;;12.90;58.40;;;;;;6127234;23;20073;-95
2021/05/05 12:25:56;;;;;;;1.02;0.50;;;12.90;59.90;;;;;;6095736;23;20322;-91
2021/05/05 12:28:21;;;;;;;1.13;0.57;;;13.00;59.00;;;;;;6130189;23;20072;-93
2021/05/05 12:30:55;;;;;;;1.48;0.70;;;12.90;59.80;;;;;;6131122;23;20278;-92
2021/05/05 12:33:37;;;;;;;1.92;1.00;;;13.10;62.10;;;;;;6131364;23;20002;-92
2021/05/05 12:36:12;;;;;;;3.85;1.20;;;13.20;62.30;;;;;;6132278;23;20002;-95
2021/05/05 12:39:11;;;;;;;4.43;0.50;;;13.40;60.50;;;;;;6132001;23;20010;-95
2021/05/05 12:42:44;;;;;;;4.88;0.40;;;12.60;65.70;;;;;;6128890;23;20674;-96
2021/05/05 12:48:12;;;;;;;0.70;0.50;;;10.90;74.80;;;;;;6132840;23;20048;-94
2021/05/05 12:51:32;;;;;;;;;;;;;;;;;;;;;
2021/05/05 12:57:30;;;;;;;0.40;0.32;;;9.80;80.50;;;;;;6066851;23;20344;-96
2021/05/05 12:59:56;;;;;;;1.88;0.50;;;9.80;80.20;;;;;;6131937;23;20006;-93
2021/05/05 13:03:02;;;;;;;4.47;0.60;;;9.90;79.50;;;;;;6132062;23;20006;-95
2021/05/05 13:06:20;;;;;;;0.40;0.40;;;9.90;77.60;;;;;;6129963;23;20006;-95
2021/05/05 13:08:54;;;;;;;2.55;0.45;;;10.10;79.00;;;;;;6131958;23;20010;-95
2021/05/05 13:11:28;;;;;;;1.25;0.40;;;10.20;75.70;;;;;;6132297;23;20012;-94
2021/05/05 13:14:34;;;;;;;;;;;;;;;;;;;;;
2021/05/05 13:17:22;;;;;;;0.60;0.52;;;10.30;75.30;;;;;;6125557;23;20006;-94
2021/05/05 13:31:48;;;;;;;0.80;0.52;;;11.10;73.70;;;;;;6132400;23;20058;-94
2021/05/05 13:34:16;;;;;;;0.70;0.70;;;11.30;73.40;;;;;;6132144;23;20002;-93
2021/05/05 13:36:57;;;;;;;1.98;0.70;;;11.40;71.40;;;;;;6132327;23;20006;-92
2021/05/05 13:39:27;;;;;;;0.75;0.70;;;11.50;69.60;;;;;;6132240;23;20052;-94
2021/05/05 13:41:59;;;;;;;1.27;0.70;;;11.50;69.70;;;;;;6131756;23;20030;-93
2021/05/05 13:44:38;;;;;;;0.93;0.65;;;11.60;70.50;;;;;;6131757;23;20041;-91
2021/05/05 13:47:08;;;;;;;1.67;0.88;;;11.70;70.60;;;;;;6132292;23;20014;-93
2021/05/05 13:49:43;;;;;;;0.70;0.68;;;12.00;69.40;;;;;;6133698;23;20277;-92
2021/05/05 13:52:10;;;;;;;1.17;0.57;;;12.10;67.80;;;;;;6133471;23;20041;-93
2021/05/05 13:54:36;;;;;;;2.60;0.50;;;12.10;68.80;;;;;;6133704;23;20022;-93
2021/05/05 13:57:03;;;;;;;0.98;0.70;;;12.20;68.50;;;;;;6133666;23;20468;-91
2021/05/05 13:59:32;;;;;;;2.30;0.90;;;12.40;68.10;;;;;;6132672;23;20313;-92
2021/05/05 14:02:00;;;;;;;0.80;0.80;;;12.50;64.90;;;;;;6133250;23;20010;-91
2021/05/05 14:04:26;;;;;;;1.75;0.60;;;12.70;64.80;;;;;;6133301;23;20006;-94
2021/05/05 14:06:52;;;;;;;0.50;0.50;;;13.00;64.20;;;;;;6133125;23;20064;-91
2021/05/05 14:09:18;;;;;;;0.80;0.50;;;13.20;61.60;;;;;;6133007;23;20064;-93
2021/05/05 14:11:44;;;;;;;1.10;0.60;;;13.40;62.40;;;;;;6108811;23;20017;-92
2021/05/05 14:14:09;;;;;;;1.58;0.70;;;13.50;61.70;;;;;;6133529;23;20076;-93
2021/05/05 14:16:38;;;;;;;1.00;0.70;;;13.70;62.70;;;;;;6133098;23;20339;-94
2021/05/05 14:19:04;;;;;;;1.42;1.20;;;13.70;62.10;;;;;;6158013;23;20036;-94
2021/05/05 14:21:30;;;;;;;1.00;0.80;;;13.80;62.70;;;;;;6133134;23;20010;-94
2021/05/05 14:23:55;;;;;;;0.95;0.75;;;13.80;63.50;;;;;;6133416;23;20014;-93
2021/05/05 14:26:21;;;;;;;2.90;0.60;;;13.70;63.00;;;;;;6133544;23;20006;-94
2021/05/05 14:28:47;;;;;;;0.70;0.50;;;13.70;60.90;;;;;;6133799;23;20034;-93
2021/05/05 14:31:13;;;;;;;0.95;0.60;;;13.60;60.30;;;;;;6133662;23;20002;-94
2021/05/05 14:33:39;;;;;;;0.82;0.60;;;13.60;61.40;;;;;;6133358;23;20012;-93
2021/05/05 14:36:06;;;;;;;0.90;0.63;;;13.60;61.30;;;;;;6132923;23;20010;-94
2021/05/05 14:38:37;;;;;;;1.52;0.60;;;13.70;61.10;;;;;;6132759;23;20017;-94
2021/05/05 14:41:08;;;;;;;0.93;0.60;;;13.80;58.50;;;;;;6132907;23;20058;-94
2021/05/05 14:48:45;;;;;;;0.90;0.70;;;13.90;62.50;;;;;;6134271;23;20014;-93
2021/05/05 14:51:11;;;;;;;1.55;0.63;;;13.90;62.50;;;;;;6133558;23;20006;-94
2021/05/05 14:53:37;;;;;;;1.20;0.82;;;13.80;63.40;;;;;;6134046;23;19998;-92
2021/05/05 14:56:03;;;;;;;0.80;0.70;;;13.70;65.30;;;;;;6133038;23;20001;-94
2021/05/05 14:58:34;;;;;;;0.75;0.63;;;13.50;65.30;;;;;;6132143;23;20010;-94
2021/05/05 15:01:00;;;;;;;2.13;0.60;;;13.40;65.30;;;;;;6132606;23;20008;-93
2021/05/05 15:03:29;;;;;;;0.90;0.60;;;13.50;65.80;;;;;;6132488;23;20005;-94
2021/05/05 15:06:02;;;;;;;0.60;0.40;;;13.50;64.10;;;;;;6135691;23;20017;-92
2021/05/05 15:08:45;;;;;;;1.05;0.50;;;13.50;64.40;;;;;;6135151;23;20017;-95
2021/05/05 15:34:30;;;;;;;0.50;0.50;;;12.40;65.80;;;;;;6133415;23;20247;-94
2021/05/05 15:36:58;;;;;;;0.90;0.60;;;12.60;65.60;;;;;;6132679;23;20001;-94
2021/05/05 15:39:33;;;;;;;1.33;0.60;;;12.70;64.80;;;;;;6133194;23;20013;-94
2021/05/05 15:42:01;;;;;;;1.02;0.70;;;12.70;64.30;;;;;;6128660;23;20086;-95
2021/05/05 15:45:03;;;;;;;1.02;0.60;;;12.70;64.50;;;;;;6132416;23;20080;-96
2021/05/05 15:47:31;;;;;;;1.05;0.77;;;12.60;65.10;;;;;;6132261;23;20010;-96
2021/05/05 15:50:21;;;;;;;;;;;;;;;;;;;;;
2021/05/05 15:56:12;;;;;;;1.23;0.85;;;12.40;64.20;;;;;;6143642;23;20006;-96
2021/05/05 15:59:14;;;;;;;0.95;0.57;;;12.30;63.70;;;;;;6133116;23;20008;-96
2021/05/05 16:09:31;;;;;;;;;;;;;;;;;;;;;
2021/05/05 16:17:03;;;;;;;2.15;1.02;;;11.00;76.80;;;;;;6133387;23;20075;-96
2021/05/05 16:19:36;;;;;;;2.72;1.60;;;10.60;80.70;;;;;;6132684;23;20342;-95
2021/05/05 17:13:38;;;;;;;2.30;1.10;;;10.30;79.50;;;;;;5944951;24;20019;-94
2021/05/05 18:23:52;;;;;;;1.58;0.85;;;10.00;74.30;;;;;;6135463;23;20434;-93
2021/05/05 18:29:26;;;;;;;2.58;1.10;;;10.00;73.40;;;;;;6119805;23;20350;-88
2021/05/05 18:31:52;;;;;;;0.85;0.45;;;10.00;73.80;;;;;;6129932;23;20009;-89
2021/05/05 18:34:17;;;;;;;3.90;0.90;;;10.00;73.40;;;;;;6152935;23;20005;-90
2021/05/05 18:36:43;;;;;;;1.90;1.20;;;10.00;73.50;;;;;;6128727;23;20080;-88
2021/05/05 21:19:47;;;;;;;1.00;0.73;;;8.00;83.00;;;;;;6134262;23;20040;-96
2021/05/05 22:48:10;;;;;;;2.38;0.95;;;7.50;83.30;;;;;;6133314;23;20064;-96
2021/05/05 22:49:39;;;;;;;;;;;;;;;;;;;;;
2021/05/05 23:13:07;;;;;;;1.90;1.30;;;7.40;83.80;;;;;;6132648;23;20068;-96
2021/05/05 23:16:02;;;;;;;2.47;1.15;;;7.40;83.90;;;;;;6132555;23;20005;-94
2021/05/05 23:26:53;;;;;;;1.52;1.00;;;7.40;83.70;;;;;;6132862;23;20037;-94
2021/05/05 23:54:54;;;;;;;2.30;1.60;;;7.10;84.60;;;;;;6132390;23;20040;-94
